sensor_id;sensor_type;location;lat;lon;timestamp;P1;durP1;ratioP1;P2;durP2;ratioP2
61642;SDS011;47551;52.506;4.678;2023-08-06T00:00:11;10.07;;;7.90;;
61642;SDS011;47551;52.506;4.678;2023-08-06T00:00:32;10.73;;;7.80;;
61642;SDS011;47551;52.506;4.678;2023-08-06T00:00:52;9.80;;;8.07;;
61642;SDS011;47551;52.506;4.678;2023-08-06T00:01:13;10.40;;;8.23;;
61642;SDS011;47551;52.506;4.678;2023-08-06T00:01:33;10.40;;;8.00;;
61642;SDS011;47551;52.506;4.678;2023-08-06T00:01:53;10.37;;;7.80;;
61642;SDS011;47551;52.506;4.678;2023-08-06T00:02:14;12.07;;;7.93;;
61642;SDS011;47551;52.506;4.678;2023-08-06T00:02:34;11.50;;;8.47;;
61642;SDS011;47551;52.506;4.678;2023-08-06T00:02:55;11.05;;;8.70;;
61642;SDS011;47551;52.506;4.678;2023-08-06T00:03:15;10.20;;;8.60;;
61642;SDS011;47551;52.506;4.678;2023-08-06T00:03:35;9.48;;;8.18;;
61642;SDS011;47551;52.506;4.678;2023-08-06T00:03:56;9.63;;;8.07;;
61642;SDS011;47551;52.506;4.678;2023-08-06T00:04:19;10.23;;;8.00;;
61642;SDS011;47551;52.506;4.678;2023-08-06T00:04:40;10.75;;;8.07;;
61642;SDS011;47551;52.506;4.678;2023-08-06T00:05:00;9.67;;;7.70;;
61642;SDS011;47551;52.506;4.678;2023-08-06T00:05:21;9.10;;;7.80;;
61642;SDS011;47551;52.506;4.678;2023-08-06T00:05:42;9.97;;;8.10;;
61642;SDS011;47551;52.506;4.678;2023-08-06T00:06:05;10.85;;;8.35;;
61642;SDS011;47551;52.506;4.678;2023-08-06T00:06:29;10.65;;;8.55;;
61642;SDS011;47551;52.506;4.678;2023-08-06T00:06:52;9.35;;;7.75;;
61642;SDS011;47551;52.506;4.678;2023-08-06T00:07:15;9.05;;;7.90;;
61642;SDS011;47551;52.506;4.678;2023-08-06T00:07:35;11.27;;;8.38;;
61642;SDS011;47551;52.506;4.678;2023-08-06T00:07:58;10.90;;;8.32;;
61642;SDS011;47551;52.506;4.678;2023-08-06T00:08:22;10.07;;;7.83;;
61642;SDS011;47551;52.506;4.678;2023-08-06T00:08:42;21.87;;;9.93;;
61642;SDS011;47551;52.506;4.678;2023-08-06T00:09:06;31.20;;;10.90;;
61642;SDS011;47551;52.506;4.678;2023-08-06T00:09:26;25.60;;;10.10;;
61642;SDS011;47551;52.506;4.678;2023-08-06T00:09:46;33.23;;;10.90;;
61642;SDS011;47551;52.506;4.678;2023-08-06T00:10:07;24.93;;;10.37;;
61642;SDS011;47551;52.506;4.678;2023-08-06T00:10:27;13.85;;;8.77;;
61642;SDS011;47551;52.506;4.678;2023-08-06T00:10:48;11.05;;;8.30;;
61642;SDS011;47551;52.506;4.678;2023-08-06T00:11:09;10.67;;;8.67;;
61642;SDS011;47551;52.506;4.678;2023-08-06T00:11:29;10.73;;;8.83;;
61642;SDS011;47551;52.506;4.678;2023-08-06T00:11:55;10.77;;;8.98;;
61642;SDS011;47551;52.506;4.678;2023-08-06T00:12:15;10.77;;;8.53;;
61642;SDS011;47551;52.506;4.678;2023-08-06T00:12:36;10.77;;;8.25;;
61642;SDS011;47551;52.506;4.678;2023-08-06T00:12:56;10.37;;;8.23;;
61642;SDS011;47551;52.506;4.678;2023-08-06T00:13:19;10.68;;;8.82;;
61642;SDS011;47551;52.506;4.678;2023-08-06T00:13:40;10.13;;;8.60;;
61642;SDS011;47551;52.506;4.678;2023-08-06T00:14:00;10.83;;;8.80;;
61642;SDS011;47551;52.506;4.678;2023-08-06T00:14:20;10.23;;;8.57;;
61642;SDS011;47551;52.506;4.678;2023-08-06T00:14:41;9.63;;;8.17;;
61642;SDS011;47551;52.506;4.678;2023-08-06T00:15:04;11.18;;;8.70;;
61642;SDS011;47551;52.506;4.678;2023-08-06T00:15:24;12.20;;;8.93;;
61642;SDS011;47551;52.506;4.678;2023-08-06T00:15:45;9.60;;;8.20;;
61642;SDS011;47551;52.506;4.678;2023-08-06T00:16:11;11.02;;;8.68;;
61642;SDS011;47551;52.506;4.678;2023-08-06T00:16:32;10.27;;;8.18;;
61642;SDS011;47551;52.506;4.678;2023-08-06T00:16:53;10.27;;;8.53;;
61642;SDS011;47551;52.506;4.678;2023-08-06T00:17:13;10.15;;;8.32;;
61642;SDS011;47551;52.506;4.678;2023-08-06T00:17:34;9.70;;;8.40;;
61642;SDS011;47551;52.506;4.678;2023-08-06T00:17:54;10.07;;;8.30;;
61642;SDS011;47551;52.506;4.678;2023-08-06T00:18:15;9.97;;;8.13;;
61642;SDS011;47551;52.506;4.678;2023-08-06T00:18:35;11.65;;;8.73;;
61642;SDS011;47551;52.506;4.678;2023-08-06T00:18:55;12.40;;;9.20;;
61642;SDS011;47551;52.506;4.678;2023-08-06T00:19:16;9.97;;;8.43;;
61642;SDS011;47551;52.506;4.678;2023-08-06T00:19:36;13.63;;;8.90;;
61642;SDS011;47551;52.506;4.678;2023-08-06T00:19:59;11.52;;;8.80;;
61642;SDS011;47551;52.506;4.678;2023-08-06T00:20:24;11.27;;;8.63;;
61642;SDS011;47551;52.506;4.678;2023-08-06T00:20:51;15.50;;;9.50;;
61642;SDS011;47551;52.506;4.678;2023-08-06T00:21:12;13.95;;;9.13;;
61642;SDS011;47551;52.506;4.678;2023-08-06T00:21:39;11.85;;;8.75;;
61642;SDS011;47551;52.506;4.678;2023-08-06T00:21:59;11.27;;;8.50;;
61642;SDS011;47551;52.506;4.678;2023-08-06T00:22:20;12.88;;;9.25;;
61642;SDS011;47551;52.506;4.678;2023-08-06T00:22:40;15.30;;;9.63;;
61642;SDS011;47551;52.506;4.678;2023-08-06T00:23:00;13.77;;;9.50;;
61642;SDS011;47551;52.506;4.678;2023-08-06T00:23:21;14.15;;;9.30;;
61642;SDS011;47551;52.506;4.678;2023-08-06T00:23:42;18.35;;;10.00;;
61642;SDS011;47551;52.506;4.678;2023-08-06T00:24:02;24.70;;;10.47;;
61642;SDS011;47551;52.506;4.678;2023-08-06T00:24:23;26.40;;;11.10;;
61642;SDS011;47551;52.506;4.678;2023-08-06T00:24:43;18.37;;;10.20;;
61642;SDS011;47551;52.506;4.678;2023-08-06T00:25:06;18.10;;;9.52;;
61642;SDS011;47551;52.506;4.678;2023-08-06T00:25:27;19.27;;;10.25;;
61642;SDS011;47551;52.506;4.678;2023-08-06T00:25:47;29.80;;;11.23;;
61642;SDS011;47551;52.506;4.678;2023-08-06T00:26:07;23.73;;;10.65;;
61642;SDS011;47551;52.506;4.678;2023-08-06T00:26:30;20.05;;;10.85;;
61642;SDS011;47551;52.506;4.678;2023-08-06T00:26:54;32.03;;;11.18;;
61642;SDS011;47551;52.506;4.678;2023-08-06T00:27:14;37.22;;;11.68;;
61642;SDS011;47551;52.506;4.678;2023-08-06T00:27:34;42.67;;;12.23;;
61642;SDS011;47551;52.506;4.678;2023-08-06T00:27:55;31.73;;;12.23;;
61642;SDS011;47551;52.506;4.678;2023-08-06T00:28:18;20.55;;;10.73;;
61642;SDS011;47551;52.506;4.678;2023-08-06T00:28:39;20.23;;;10.53;;
61642;SDS011;47551;52.506;4.678;2023-08-06T00:28:59;22.02;;;10.93;;
61642;SDS011;47551;52.506;4.678;2023-08-06T00:29:19;24.07;;;11.00;;
61642;SDS011;47551;52.506;4.678;2023-08-06T00:29:40;25.13;;;11.32;;
61642;SDS011;47551;52.506;4.678;2023-08-06T00:30:00;27.37;;;11.50;;
61642;SDS011;47551;52.506;4.678;2023-08-06T00:30:20;27.93;;;11.60;;
61642;SDS011;47551;52.506;4.678;2023-08-06T00:30:41;25.90;;;11.45;;
61642;SDS011;47551;52.506;4.678;2023-08-06T00:31:01;25.93;;;11.53;;
61642;SDS011;47551;52.506;4.678;2023-08-06T00:31:21;28.25;;;11.88;;
61642;SDS011;47551;52.506;4.678;2023-08-06T00:31:42;23.53;;;11.00;;
61642;SDS011;47551;52.506;4.678;2023-08-06T00:32:02;15.40;;;10.63;;
61642;SDS011;47551;52.506;4.678;2023-08-06T00:32:23;16.25;;;10.93;;
61642;SDS011;47551;52.506;4.678;2023-08-06T00:32:43;19.00;;;11.27;;
61642;SDS011;47551;52.506;4.678;2023-08-06T00:33:04;18.95;;;11.02;;
61642;SDS011;47551;52.506;4.678;2023-08-06T00:33:25;21.83;;;11.37;;
61642;SDS011;47551;52.506;4.678;2023-08-06T00:33:48;22.95;;;11.27;;
61642;SDS011;47551;52.506;4.678;2023-08-06T00:34:09;23.02;;;11.52;;
61642;SDS011;47551;52.506;4.678;2023-08-06T00:34:29;21.60;;;11.63;;
61642;SDS011;47551;52.506;4.678;2023-08-06T00:34:50;24.10;;;12.27;;
61642;SDS011;47551;52.506;4.678;2023-08-06T00:35:12;20.15;;;11.55;;
61642;SDS011;47551;52.506;4.678;2023-08-06T00:35:33;23.08;;;12.05;;
61642;SDS011;47551;52.506;4.678;2023-08-06T00:35:53;26.50;;;12.07;;
61642;SDS011;47551;52.506;4.678;2023-08-06T00:36:14;29.03;;;12.40;;
61642;SDS011;47551;52.506;4.678;2023-08-06T00:36:37;30.00;;;12.18;;
61642;SDS011;47551;52.506;4.678;2023-08-06T00:36:57;30.10;;;12.27;;
61642;SDS011;47551;52.506;4.678;2023-08-06T00:37:18;24.70;;;12.43;;
61642;SDS011;47551;52.506;4.678;2023-08-06T00:37:38;22.65;;;12.27;;
61642;SDS011;47551;52.506;4.678;2023-08-06T00:37:59;29.15;;;12.68;;
61642;SDS011;47551;52.506;4.678;2023-08-06T00:38:19;31.40;;;12.53;;
61642;SDS011;47551;52.506;4.678;2023-08-06T00:38:39;30.27;;;12.53;;
61642;SDS011;47551;52.506;4.678;2023-08-06T00:39:02;25.10;;;12.23;;
61642;SDS011;47551;52.506;4.678;2023-08-06T00:39:27;23.83;;;12.43;;
61642;SDS011;47551;52.506;4.678;2023-08-06T00:39:53;23.02;;;12.18;;
61642;SDS011;47551;52.506;4.678;2023-08-06T00:40:16;21.60;;;12.52;;
61642;SDS011;47551;52.506;4.678;2023-08-06T00:40:39;23.50;;;12.20;;
61642;SDS011;47551;52.506;4.678;2023-08-06T00:41:00;28.60;;;12.43;;
61642;SDS011;47551;52.506;4.678;2023-08-06T00:41:20;32.40;;;12.60;;
61642;SDS011;47551;52.506;4.678;2023-08-06T00:41:40;29.42;;;12.48;;
61642;SDS011;47551;52.506;4.678;2023-08-06T00:42:01;29.70;;;12.20;;
61642;SDS011;47551;52.506;4.678;2023-08-06T00:42:24;30.48;;;12.23;;
61642;SDS011;47551;52.506;4.678;2023-08-06T00:42:47;25.40;;;13.32;;
61642;SDS011;47551;52.506;4.678;2023-08-06T00:43:08;29.10;;;12.90;;
61642;SDS011;47551;52.506;4.678;2023-08-06T00:43:29;28.93;;;13.00;;
61642;SDS011;47551;52.506;4.678;2023-08-06T00:43:49;26.85;;;12.80;;
61642;SDS011;47551;52.506;4.678;2023-08-06T00:44:09;24.20;;;12.70;;
61642;SDS011;47551;52.506;4.678;2023-08-06T00:44:30;27.00;;;12.32;;
61642;SDS011;47551;52.506;4.678;2023-08-06T00:44:50;26.97;;;13.03;;
61642;SDS011;47551;52.506;4.678;2023-08-06T00:45:11;28.83;;;13.50;;
61642;SDS011;47551;52.506;4.678;2023-08-06T00:45:31;27.42;;;13.27;;
61642;SDS011;47551;52.506;4.678;2023-08-06T00:45:54;23.00;;;13.38;;
61642;SDS011;47551;52.506;4.678;2023-08-06T00:46:15;25.67;;;13.00;;
61642;SDS011;47551;52.506;4.678;2023-08-06T00:46:36;28.02;;;13.07;;
61642;SDS011;47551;52.506;4.678;2023-08-06T00:46:59;28.35;;;13.13;;
61642;SDS011;47551;52.506;4.678;2023-08-06T00:47:21;31.73;;;13.20;;
61642;SDS011;47551;52.506;4.678;2023-08-06T00:47:41;30.30;;;13.10;;
61642;SDS011;47551;52.506;4.678;2023-08-06T00:48:02;32.38;;;12.90;;
61642;SDS011;47551;52.506;4.678;2023-08-06T00:48:25;32.33;;;13.70;;
61642;SDS011;47551;52.506;4.678;2023-08-06T00:48:45;25.53;;;13.20;;
61642;SDS011;47551;52.506;4.678;2023-08-06T00:49:09;28.08;;;13.73;;
61642;SDS011;47551;52.506;4.678;2023-08-06T00:49:29;25.83;;;13.15;;
61642;SDS011;47551;52.506;4.678;2023-08-06T00:49:53;21.40;;;12.30;;
61642;SDS011;47551;52.506;4.678;2023-08-06T00:50:14;21.40;;;13.13;;
61642;SDS011;47551;52.506;4.678;2023-08-06T00:50:34;26.23;;;13.37;;
61642;SDS011;47551;52.506;4.678;2023-08-06T00:50:54;22.80;;;12.82;;
61642;SDS011;47551;52.506;4.678;2023-08-06T00:51:15;26.03;;;13.03;;
61642;SDS011;47551;52.506;4.678;2023-08-06T00:51:35;27.58;;;13.25;;
61642;SDS011;47551;52.506;4.678;2023-08-06T00:51:56;30.77;;;13.77;;
61642;SDS011;47551;52.506;4.678;2023-08-06T00:52:17;35.20;;;14.38;;
61642;SDS011;47551;52.506;4.678;2023-08-06T00:52:37;29.13;;;13.53;;
61642;SDS011;47551;52.506;4.678;2023-08-06T00:52:58;31.33;;;13.67;;
61642;SDS011;47551;52.506;4.678;2023-08-06T00:53:19;34.05;;;14.02;;
61642;SDS011;47551;52.506;4.678;2023-08-06T00:53:39;32.17;;;14.77;;
61642;SDS011;47551;52.506;4.678;2023-08-06T00:54:00;31.13;;;14.60;;
61642;SDS011;47551;52.506;4.678;2023-08-06T00:54:22;33.60;;;14.70;;
61642;SDS011;47551;52.506;4.678;2023-08-06T00:54:43;28.98;;;14.43;;
61642;SDS011;47551;52.506;4.678;2023-08-06T00:55:04;31.70;;;14.07;;
61642;SDS011;47551;52.506;4.678;2023-08-06T00:55:25;27.08;;;14.05;;
61642;SDS011;47551;52.506;4.678;2023-08-06T00:55:46;27.55;;;14.30;;
61642;SDS011;47551;52.506;4.678;2023-08-06T00:56:07;26.95;;;14.48;;
61642;SDS011;47551;52.506;4.678;2023-08-06T00:56:32;29.10;;;14.23;;
61642;SDS011;47551;52.506;4.678;2023-08-06T00:56:55;27.25;;;14.05;;
61642;SDS011;47551;52.506;4.678;2023-08-06T00:57:17;25.30;;;14.32;;
61642;SDS011;47551;52.506;4.678;2023-08-06T00:57:40;39.67;;;15.70;;
61642;SDS011;47551;52.506;4.678;2023-08-06T00:58:03;38.27;;;15.60;;
61642;SDS011;47551;52.506;4.678;2023-08-06T00:58:24;37.35;;;15.55;;
61642;SDS011;47551;52.506;4.678;2023-08-06T00:58:45;38.33;;;15.70;;
61642;SDS011;47551;52.506;4.678;2023-08-06T00:59:06;35.90;;;15.88;;
61642;SDS011;47551;52.506;4.678;2023-08-06T00:59:26;33.42;;;16.25;;
61642;SDS011;47551;52.506;4.678;2023-08-06T00:59:48;29.75;;;15.55;;
61642;SDS011;47551;52.506;4.678;2023-08-06T01:00:09;27.67;;;15.10;;
61642;SDS011;47551;52.506;4.678;2023-08-06T01:00:30;33.05;;;16.00;;
61642;SDS011;47551;52.506;4.678;2023-08-06T01:00:51;33.60;;;15.80;;
61642;SDS011;47551;52.506;4.678;2023-08-06T01:01:11;37.70;;;16.20;;
61642;SDS011;47551;52.506;4.678;2023-08-06T01:01:32;36.60;;;15.97;;
61642;SDS011;47551;52.506;4.678;2023-08-06T01:01:55;32.40;;;15.80;;
61642;SDS011;47551;52.506;4.678;2023-08-06T01:02:16;27.35;;;15.57;;
61642;SDS011;47551;52.506;4.678;2023-08-06T01:02:36;35.35;;;16.40;;
61642;SDS011;47551;52.506;4.678;2023-08-06T01:02:57;33.92;;;16.00;;
61642;SDS011;47551;52.506;4.678;2023-08-06T01:03:17;34.00;;;15.67;;
61642;SDS011;47551;52.506;4.678;2023-08-06T01:03:38;31.63;;;15.93;;
61642;SDS011;47551;52.506;4.678;2023-08-06T01:03:58;31.97;;;16.33;;
61642;SDS011;47551;52.506;4.678;2023-08-06T01:04:19;28.58;;;15.40;;
61642;SDS011;47551;52.506;4.678;2023-08-06T01:04:39;31.17;;;15.77;;
61642;SDS011;47551;52.506;4.678;2023-08-06T01:05:00;33.03;;;16.27;;
61642;SDS011;47551;52.506;4.678;2023-08-06T01:05:20;31.93;;;16.17;;
61642;SDS011;47551;52.506;4.678;2023-08-06T01:05:44;32.10;;;16.15;;
61642;SDS011;47551;52.506;4.678;2023-08-06T01:06:05;33.60;;;15.90;;
61642;SDS011;47551;52.506;4.678;2023-08-06T01:06:46;29.23;;;15.52;;
61642;SDS011;47551;52.506;4.678;2023-08-06T01:07:51;32.10;;;16.10;;
61642;SDS011;47551;52.506;4.678;2023-08-06T01:08:57;29.88;;;15.77;;
61642;SDS011;47551;52.506;4.678;2023-08-06T01:11:38;24.17;;;15.25;;
61642;SDS011;47551;52.506;4.678;2023-08-06T01:12:11;37.20;;;16.00;;
61642;SDS011;47551;52.506;4.678;2023-08-06T01:12:50;28.42;;;16.15;;
61642;SDS011;47551;52.506;4.678;2023-08-06T01:13:59;33.70;;;15.40;;
61642;SDS011;47551;52.506;4.678;2023-08-06T01:14:52;26.97;;;16.20;;
61642;SDS011;47551;52.506;4.678;2023-08-06T01:15:29;32.55;;;15.82;;
61642;SDS011;47551;52.506;4.678;2023-08-06T01:15:54;38.47;;;16.13;;
61642;SDS011;47551;52.506;4.678;2023-08-06T01:16:22;42.55;;;16.50;;
61642;SDS011;47551;52.506;4.678;2023-08-06T01:16:44;40.80;;;16.20;;
61642;SDS011;47551;52.506;4.678;2023-08-06T01:17:04;40.22;;;16.38;;
61642;SDS011;47551;52.506;4.678;2023-08-06T01:17:29;35.85;;;16.20;;
61642;SDS011;47551;52.506;4.678;2023-08-06T01:17:50;25.42;;;15.38;;
61642;SDS011;47551;52.506;4.678;2023-08-06T01:18:12;23.25;;;15.38;;
61642;SDS011;47551;52.506;4.678;2023-08-06T01:18:33;32.60;;;16.25;;
61642;SDS011;47551;52.506;4.678;2023-08-06T01:18:54;38.17;;;16.27;;
61642;SDS011;47551;52.506;4.678;2023-08-06T01:19:17;34.33;;;15.93;;
61642;SDS011;47551;52.506;4.678;2023-08-06T01:19:38;39.40;;;16.48;;
61642;SDS011;47551;52.506;4.678;2023-08-06T01:19:59;36.67;;;16.17;;
61642;SDS011;47551;52.506;4.678;2023-08-06T01:20:19;34.92;;;16.08;;
61642;SDS011;47551;52.506;4.678;2023-08-06T01:20:39;38.53;;;16.23;;
61642;SDS011;47551;52.506;4.678;2023-08-06T01:20:59;38.00;;;16.47;;
61642;SDS011;47551;52.506;4.678;2023-08-06T01:21:20;36.45;;;16.30;;
61642;SDS011;47551;52.506;4.678;2023-08-06T01:21:40;35.70;;;15.80;;
61642;SDS011;47551;52.506;4.678;2023-08-06T01:22:01;37.42;;;16.00;;
61642;SDS011;47551;52.506;4.678;2023-08-06T01:22:24;31.70;;;15.57;;
61642;SDS011;47551;52.506;4.678;2023-08-06T01:22:44;35.65;;;15.60;;
61642;SDS011;47551;52.506;4.678;2023-08-06T01:23:05;30.10;;;16.10;;
61642;SDS011;47551;52.506;4.678;2023-08-06T01:23:25;34.87;;;16.80;;
61642;SDS011;47551;52.506;4.678;2023-08-06T01:23:46;30.30;;;16.20;;
61642;SDS011;47551;52.506;4.678;2023-08-06T01:24:10;32.95;;;16.00;;
61642;SDS011;47551;52.506;4.678;2023-08-06T01:24:31;31.02;;;16.38;;
61642;SDS011;47551;52.506;4.678;2023-08-06T01:24:51;33.60;;;16.13;;
61642;SDS011;47551;52.506;4.678;2023-08-06T01:25:15;26.95;;;16.15;;
61642;SDS011;47551;52.506;4.678;2023-08-06T01:25:46;32.28;;;16.30;;
61642;SDS011;47551;52.506;4.678;2023-08-06T01:26:41;34.80;;;15.90;;
61642;SDS011;47551;52.506;4.678;2023-08-06T01:27:29;24.50;;;15.15;;
61642;SDS011;47551;52.506;4.678;2023-08-06T01:27:53;22.25;;;15.20;;
61642;SDS011;47551;52.506;4.678;2023-08-06T01:28:22;26.45;;;15.55;;
61642;SDS011;47551;52.506;4.678;2023-08-06T01:29:25;29.42;;;15.63;;
61642;SDS011;47551;52.506;4.678;2023-08-06T01:29:59;30.98;;;16.17;;
61642;SDS011;47551;52.506;4.678;2023-08-06T01:30:29;25.15;;;15.50;;
61642;SDS011;47551;52.506;4.678;2023-08-06T01:30:55;32.80;;;16.27;;
61642;SDS011;47551;52.506;4.678;2023-08-06T01:31:23;30.20;;;16.00;;
61642;SDS011;47551;52.506;4.678;2023-08-06T01:31:48;25.17;;;15.88;;
61642;SDS011;47551;52.506;4.678;2023-08-06T01:32:10;30.73;;;15.95;;
61642;SDS011;47551;52.506;4.678;2023-08-06T01:32:32;27.80;;;15.77;;
61642;SDS011;47551;52.506;4.678;2023-08-06T01:32:58;31.75;;;15.95;;
61642;SDS011;47551;52.506;4.678;2023-08-06T01:33:21;27.50;;;15.63;;
61642;SDS011;47551;52.506;4.678;2023-08-06T01:33:43;35.08;;;16.27;;
61642;SDS011;47551;52.506;4.678;2023-08-06T01:34:06;32.42;;;16.33;;
61642;SDS011;47551;52.506;4.678;2023-08-06T01:34:31;35.08;;;15.98;;
61642;SDS011;47551;52.506;4.678;2023-08-06T01:34:54;37.00;;;16.40;;
61642;SDS011;47551;52.506;4.678;2023-08-06T01:35:15;23.25;;;15.65;;
61642;SDS011;47551;52.506;4.678;2023-08-06T01:35:37;26.67;;;15.63;;
61642;SDS011;47551;52.506;4.678;2023-08-06T01:35:58;30.67;;;15.60;;
61642;SDS011;47551;52.506;4.678;2023-08-06T01:36:19;29.20;;;15.95;;
61642;SDS011;47551;52.506;4.678;2023-08-06T01:36:41;33.47;;;16.15;;
61642;SDS011;47551;52.506;4.678;2023-08-06T01:37:02;29.83;;;16.38;;
61642;SDS011;47551;52.506;4.678;2023-08-06T01:37:25;27.17;;;16.30;;
61642;SDS011;47551;52.506;4.678;2023-08-06T01:37:47;29.00;;;16.30;;
61642;SDS011;47551;52.506;4.678;2023-08-06T01:38:08;31.70;;;17.00;;
61642;SDS011;47551;52.506;4.678;2023-08-06T01:38:29;31.50;;;16.63;;
61642;SDS011;47551;52.506;4.678;2023-08-06T01:38:50;32.03;;;16.13;;
61642;SDS011;47551;52.506;4.678;2023-08-06T01:39:11;26.35;;;15.95;;
61642;SDS011;47551;52.506;4.678;2023-08-06T01:39:35;27.30;;;16.53;;
61642;SDS011;47551;52.506;4.678;2023-08-06T01:39:55;24.20;;;16.02;;
61642;SDS011;47551;52.506;4.678;2023-08-06T01:40:18;25.45;;;15.50;;
61642;SDS011;47551;52.506;4.678;2023-08-06T01:40:41;28.33;;;15.98;;
61642;SDS011;47551;52.506;4.678;2023-08-06T01:41:02;29.40;;;16.40;;
61642;SDS011;47551;52.506;4.678;2023-08-06T01:41:22;29.60;;;16.47;;
61642;SDS011;47551;52.506;4.678;2023-08-06T01:41:42;27.03;;;16.00;;
61642;SDS011;47551;52.506;4.678;2023-08-06T01:42:03;31.93;;;16.30;;
61642;SDS011;47551;52.506;4.678;2023-08-06T01:42:24;26.50;;;15.98;;
61642;SDS011;47551;52.506;4.678;2023-08-06T01:42:47;21.55;;;15.88;;
61642;SDS011;47551;52.506;4.678;2023-08-06T01:43:07;29.10;;;16.30;;
61642;SDS011;47551;52.506;4.678;2023-08-06T01:43:28;29.60;;;16.33;;
61642;SDS011;47551;52.506;4.678;2023-08-06T01:43:51;31.10;;;16.67;;
61642;SDS011;47551;52.506;4.678;2023-08-06T01:44:11;27.65;;;16.35;;
61642;SDS011;47551;52.506;4.678;2023-08-06T01:44:31;29.90;;;16.73;;
61642;SDS011;47551;52.506;4.678;2023-08-06T01:44:52;28.70;;;17.13;;
61642;SDS011;47551;52.506;4.678;2023-08-06T01:45:12;38.50;;;17.00;;
61642;SDS011;47551;52.506;4.678;2023-08-06T01:45:35;28.77;;;16.75;;
61642;SDS011;47551;52.506;4.678;2023-08-06T01:45:55;25.45;;;16.58;;
61642;SDS011;47551;52.506;4.678;2023-08-06T01:46:18;27.58;;;16.55;;
61642;SDS011;47551;52.506;4.678;2023-08-06T01:46:39;28.23;;;16.50;;
61642;SDS011;47551;52.506;4.678;2023-08-06T01:46:59;26.27;;;16.20;;
61642;SDS011;47551;52.506;4.678;2023-08-06T01:47:20;23.07;;;16.03;;
61642;SDS011;47551;52.506;4.678;2023-08-06T01:47:40;31.03;;;17.37;;
61642;SDS011;47551;52.506;4.678;2023-08-06T01:48:00;31.02;;;17.17;;
61642;SDS011;47551;52.506;4.678;2023-08-06T01:48:21;35.03;;;17.53;;
61642;SDS011;47551;52.506;4.678;2023-08-06T01:48:41;35.47;;;17.87;;
61642;SDS011;47551;52.506;4.678;2023-08-06T01:49:02;29.70;;;17.08;;
61642;SDS011;47551;52.506;4.678;2023-08-06T01:49:22;28.40;;;17.58;;
61642;SDS011;47551;52.506;4.678;2023-08-06T01:49:45;34.08;;;17.50;;
61642;SDS011;47551;52.506;4.678;2023-08-06T01:50:06;31.40;;;17.03;;
61642;SDS011;47551;52.506;4.678;2023-08-06T01:50:26;31.83;;;17.60;;
61642;SDS011;47551;52.506;4.678;2023-08-06T01:50:46;34.03;;;18.17;;
61642;SDS011;47551;52.506;4.678;2023-08-06T01:51:07;32.93;;;17.80;;
61642;SDS011;47551;52.506;4.678;2023-08-06T01:51:53;30.40;;;17.67;;
61642;SDS011;47551;52.506;4.678;2023-08-06T01:52:14;30.73;;;17.50;;
61642;SDS011;47551;52.506;4.678;2023-08-06T01:52:34;23.63;;;17.63;;
61642;SDS011;47551;52.506;4.678;2023-08-06T01:52:57;21.00;;;16.73;;
61642;SDS011;47551;52.506;4.678;2023-08-06T01:53:18;26.85;;;17.60;;
61642;SDS011;47551;52.506;4.678;2023-08-06T01:53:38;28.57;;;17.77;;
61642;SDS011;47551;52.506;4.678;2023-08-06T01:53:58;28.07;;;17.67;;
61642;SDS011;47551;52.506;4.678;2023-08-06T01:54:19;27.83;;;17.67;;
61642;SDS011;47551;52.506;4.678;2023-08-06T01:54:39;30.00;;;18.07;;
61642;SDS011;47551;52.506;4.678;2023-08-06T01:54:59;28.77;;;17.55;;
61642;SDS011;47551;52.506;4.678;2023-08-06T01:55:20;27.13;;;17.43;;
61642;SDS011;47551;52.506;4.678;2023-08-06T01:55:40;32.10;;;17.70;;
61642;SDS011;47551;52.506;4.678;2023-08-06T01:56:00;32.72;;;17.90;;
61642;SDS011;47551;52.506;4.678;2023-08-06T01:56:21;37.53;;;18.33;;
61642;SDS011;47551;52.506;4.678;2023-08-06T01:56:41;42.35;;;18.50;;
61642;SDS011;47551;52.506;4.678;2023-08-06T01:57:02;41.50;;;18.80;;
61642;SDS011;47551;52.506;4.678;2023-08-06T01:57:22;30.63;;;17.77;;
61642;SDS011;47551;52.506;4.678;2023-08-06T01:57:42;33.97;;;17.83;;
61642;SDS011;47551;52.506;4.678;2023-08-06T01:58:03;35.28;;;17.80;;
61642;SDS011;47551;52.506;4.678;2023-08-06T01:58:26;32.57;;;17.87;;
61642;SDS011;47551;52.506;4.678;2023-08-06T01:58:47;41.88;;;18.63;;
61642;SDS011;47551;52.506;4.678;2023-08-06T01:59:10;42.15;;;18.92;;
61642;SDS011;47551;52.506;4.678;2023-08-06T01:59:30;34.70;;;18.27;;
61642;SDS011;47551;52.506;4.678;2023-08-06T01:59:51;38.63;;;18.60;;
61642;SDS011;47551;52.506;4.678;2023-08-06T02:00:11;26.17;;;17.85;;
61642;SDS011;47551;52.506;4.678;2023-08-06T02:00:32;32.45;;;18.10;;
61642;SDS011;47551;52.506;4.678;2023-08-06T02:00:52;39.03;;;18.70;;
61642;SDS011;47551;52.506;4.678;2023-08-06T02:01:13;43.58;;;19.05;;
61642;SDS011;47551;52.506;4.678;2023-08-06T02:01:33;39.80;;;19.07;;
61642;SDS011;47551;52.506;4.678;2023-08-06T02:01:53;42.27;;;18.33;;
61642;SDS011;47551;52.506;4.678;2023-08-06T02:02:14;42.05;;;18.70;;
61642;SDS011;47551;52.506;4.678;2023-08-06T02:02:34;40.63;;;18.57;;
61642;SDS011;47551;52.506;4.678;2023-08-06T02:02:54;32.85;;;18.08;;
61642;SDS011;47551;52.506;4.678;2023-08-06T02:03:18;32.38;;;18.10;;
61642;SDS011;47551;52.506;4.678;2023-08-06T02:03:41;31.35;;;18.27;;
61642;SDS011;47551;52.506;4.678;2023-08-06T02:04:01;31.90;;;18.50;;
61642;SDS011;47551;52.506;4.678;2023-08-06T02:04:24;40.92;;;19.10;;
61642;SDS011;47551;52.506;4.678;2023-08-06T02:04:47;34.45;;;18.50;;
61642;SDS011;47551;52.506;4.678;2023-08-06T02:05:07;33.57;;;18.20;;
61642;SDS011;47551;52.506;4.678;2023-08-06T02:05:27;33.20;;;18.00;;
61642;SDS011;47551;52.506;4.678;2023-08-06T02:05:48;33.47;;;17.83;;
61642;SDS011;47551;52.506;4.678;2023-08-06T02:06:08;43.45;;;17.98;;
61642;SDS011;47551;52.506;4.678;2023-08-06T02:06:29;33.17;;;17.63;;
61642;SDS011;47551;52.506;4.678;2023-08-06T02:06:50;31.63;;;17.63;;
61642;SDS011;47551;52.506;4.678;2023-08-06T02:07:10;35.35;;;17.25;;
61642;SDS011;47551;52.506;4.678;2023-08-06T02:07:30;38.10;;;17.17;;
61642;SDS011;47551;52.506;4.678;2023-08-06T02:07:51;35.30;;;17.50;;
61642;SDS011;47551;52.506;4.678;2023-08-06T02:08:14;37.47;;;17.40;;
61642;SDS011;47551;52.506;4.678;2023-08-06T02:08:34;35.20;;;17.27;;
61642;SDS011;47551;52.506;4.678;2023-08-06T02:08:55;30.67;;;16.87;;
61642;SDS011;47551;52.506;4.678;2023-08-06T02:09:15;38.35;;;17.02;;
61642;SDS011;47551;52.506;4.678;2023-08-06T02:09:35;39.00;;;17.03;;
61642;SDS011;47551;52.506;4.678;2023-08-06T02:09:56;34.88;;;16.80;;
61642;SDS011;47551;52.506;4.678;2023-08-06T02:10:16;35.50;;;16.67;;
61642;SDS011;47551;52.506;4.678;2023-08-06T02:10:36;37.23;;;16.53;;
61642;SDS011;47551;52.506;4.678;2023-08-06T02:10:57;34.10;;;16.85;;
61642;SDS011;47551;52.506;4.678;2023-08-06T02:11:18;28.95;;;16.33;;
61642;SDS011;47551;52.506;4.678;2023-08-06T02:11:38;33.63;;;15.80;;
61642;SDS011;47551;52.506;4.678;2023-08-06T02:11:59;31.98;;;15.75;;
61642;SDS011;47551;52.506;4.678;2023-08-06T02:12:19;27.30;;;15.53;;
61642;SDS011;47551;52.506;4.678;2023-08-06T02:12:39;29.40;;;15.30;;
61642;SDS011;47551;52.506;4.678;2023-08-06T02:13:00;24.87;;;14.77;;
61642;SDS011;47551;52.506;4.678;2023-08-06T02:13:20;28.80;;;15.33;;
61642;SDS011;47551;52.506;4.678;2023-08-06T02:13:46;35.65;;;15.88;;